Time;durP1;ratioP1;P1;durP2;ratioP2;P2;SDS_P1;SDS_P2;PMS_P1;PMS_P2;Temp;Humidity;BMP_temperature;BMP_pressure;BME280_temperature;BME280_humidity;BME280_pressure;Samples;Min_cycle;Max_cycle;Signal;HPM_P1;HPM_P2
2021/05/16 00:01:37;;;;;;;8.63;4.07;;;;;;;;;;4363553;32;20538;-70
2021/05/16 00:04:04;;;;;;;9.23;4.20;;;;;;;;;;4351548;32;20074;-69
2021/05/16 00:06:31;;;;;;;6.75;4.05;;;;;;;;;;4363971;32;20073;-69
2021/05/16 00:08:57;;;;;;;7.10;4.00;;;;;;;;;;4363307;32;20097;-70
2021/05/16 00:11:24;;;;;;;8.27;4.50;;;;;;;;;;4375564;32;20093;-68
2021/05/16 00:13:50;;;;;;;6.50;4.07;;;;;;;;;;4363338;32;20086;-68
2021/05/16 00:16:17;;;;;;;6.47;4.12;;;;;;;;;;4363117;32;20099;-69
2021/05/16 00:18:43;;;;;;;8.38;4.35;;;;;;;;;;4362717;32;20090;-69
2021/05/16 00:21:10;;;;;;;5.87;4.10;;;;;;;;;;4377012;32;20059;-69
2021/05/16 00:23:37;;;;;;;6.32;4.28;;;;;;;;;;4359959;32;20158;-69
2021/05/16 00:26:03;;;;;;;9.02;4.22;;;;;;;;;;4378220;32;20511;-69
2021/05/16 00:28:30;;;;;;;8.45;4.22;;;;;;;;;;4377857;32;20082;-69
2021/05/16 00:30:58;;;;;;;7.55;4.53;;;;;;;;;;4390832;32;20219;-69
2021/05/16 00:33:24;;;;;;;7.60;4.10;;;;;;;;;;4366215;32;20074;-69
2021/05/16 00:35:51;;;;;;;9.38;4.25;;;;;;;;;;4377852;32;20077;-69
2021/05/16 00:38:17;;;;;;;7.85;4.45;;;;;;;;;;4390170;32;20074;-69
2021/05/16 00:40:44;;;;;;;6.10;4.10;;;;;;;;;;4352793;32;20069;-69
2021/05/16 00:43:12;;;;;;;7.30;4.30;;;;;;;;;;4378699;32;20096;-70
2021/05/16 00:45:38;;;;;;;8.45;4.53;;;;;;;;;;4353170;32;20488;-68
2021/05/16 00:48:06;;;;;;;6.37;4.03;;;;;;;;;;4389951;32;20066;-69
2021/05/16 00:50:40;;;;;;;8.77;4.00;;;;;;;;;;4389851;32;20537;-69
2021/05/16 00:53:07;;;;;;;7.12;4.20;;;;;;;;;;4390575;32;20221;-69
2021/05/16 00:55:35;;;;;;;6.87;3.83;;;;;;;;;;4390645;32;20084;-69
2021/05/16 00:58:02;;;;;;;7.30;3.97;;;;;;;;;;4390095;32;20062;-69
2021/05/16 01:00:36;;;;;;;6.80;4.00;;;;;;;;;;4402992;32;20507;-69
2021/05/16 01:03:03;;;;;;;10.60;4.32;;;;;;;;;;4378976;32;20080;-70
2021/05/16 01:05:29;;;;;;;8.90;4.20;;;;;;;;;;4403190;32;20152;-69
2021/05/16 01:07:56;;;;;;;9.75;4.05;;;;;;;;;;4377048;32;20093;-69
2021/05/16 01:10:22;;;;;;;8.25;4.28;;;;;;;;;;4365215;32;20078;-69
2021/05/16 01:12:51;;;;;;;11.75;4.40;;;;;;;;;;4390043;32;20070;-68
2021/05/16 01:15:19;;;;;;;9.68;4.00;;;;;;;;;;4365931;32;20054;-69
2021/05/16 01:17:46;;;;;;;8.05;4.03;;;;;;;;;;4402687;32;20158;-70
2021/05/16 01:20:16;;;;;;;8.82;3.85;;;;;;;;;;4352327;32;20090;-69
2021/05/16 01:22:42;;;;;;;13.10;4.72;;;;;;;;;;4377729;32;20167;-69
2021/05/16 01:25:09;;;;;;;8.57;4.30;;;;;;;;;;4390110;32;20081;-69
2021/05/16 01:27:36;;;;;;;6.72;4.10;;;;;;;;;;4377611;32;20069;-69
2021/05/16 01:30:04;;;;;;;9.55;4.50;;;;;;;;;;4389700;32;20073;-69
2021/05/16 01:32:30;;;;;;;8.65;3.97;;;;;;;;;;4390266;32;20066;-70
2021/05/16 01:34:57;;;;;;;10.77;3.92;;;;;;;;;;4377275;32;20097;-69
2021/05/16 01:37:24;;;;;;;7.87;4.20;;;;;;;;;;4377418;32;20082;-69
2021/05/16 01:39:50;;;;;;;9.32;4.12;;;;;;;;;;4353299;32;20155;-69
2021/05/16 01:42:18;;;;;;;9.30;3.95;;;;;;;;;;4392825;32;20133;-69
2021/05/16 01:44:45;;;;;;;7.95;4.70;;;;;;;;;;4393248;32;20100;-69
2021/05/16 01:47:12;;;;;;;8.45;4.20;;;;;;;;;;4396597;32;20078;-69
2021/05/16 01:49:43;;;;;;;11.55;4.15;;;;;;;;;;4358473;32;20085;-68
2021/05/16 01:52:10;;;;;;;7.80;3.90;;;;;;;;;;4395467;32;20085;-70
2021/05/16 01:54:37;;;;;;;10.43;4.15;;;;;;;;;;4380256;32;20081;-69
2021/05/16 01:57:04;;;;;;;10.73;4.20;;;;;;;;;;4377818;32;20081;-69
2021/05/16 01:59:31;;;;;;;9.25;4.12;;;;;;;;;;4390927;32;20452;-68
2021/05/16 02:01:59;;;;;;;12.93;4.53;;;;;;;;;;4367593;32;20085;-69
2021/05/16 02:04:27;;;;;;;12.00;4.65;;;;;;;;;;4392766;32;20072;-69
2021/05/16 02:06:55;;;;;;;10.45;4.47;;;;;;;;;;4380240;32;20090;-69
2021/05/16 02:09:22;;;;;;;7.50;4.70;;;;;;;;;;4380151;32;20085;-69
2021/05/16 02:11:49;;;;;;;13.38;4.55;;;;;;;;;;4380134;32;20496;-69
2021/05/16 02:14:29;;;;;;;11.68;4.68;;;;;;;;;;4379803;32;20153;-69
2021/05/16 02:16:56;;;;;;;13.05;4.57;;;;;;;;;;4380033;32;20231;-70
2021/05/16 02:19:22;;;;;;;8.10;4.28;;;;;;;;;;4368147;32;20089;-69
2021/05/16 02:21:49;;;;;;;12.25;4.70;;;;;;;;;;4392124;32;20147;-68
2021/05/16 02:24:16;;;;;;;11.95;4.85;;;;;;;;;;4367134;32;20072;-69
2021/05/16 02:26:42;;;;;;;14.32;4.32;;;;;;;;;;4392498;32;20145;-68
2021/05/16 02:29:09;;;;;;;7.82;3.95;;;;;;;;;;4392983;32;20071;-70
2021/05/16 02:31:35;;;;;;;12.13;4.75;;;;;;;;;;4367297;32;20185;-70
2021/05/16 02:34:02;;;;;;;13.07;4.20;;;;;;;;;;4380149;32;20074;-69
2021/05/16 02:36:29;;;;;;;12.68;4.40;;;;;;;;;;4384984;32;20078;-69
2021/05/16 02:38:56;;;;;;;10.20;4.20;;;;;;;;;;4364784;32;20071;-69
2021/05/16 02:41:22;;;;;;;14.35;4.55;;;;;;;;;;4352564;32;20100;-70
2021/05/16 02:43:49;;;;;;;9.80;3.75;;;;;;;;;;4365515;32;20440;-69
2021/05/16 02:46:15;;;;;;;13.48;4.50;;;;;;;;;;4365193;32;20082;-69
2021/05/16 02:48:42;;;;;;;11.60;4.40;;;;;;;;;;4364509;32;20067;-69
2021/05/16 02:51:08;;;;;;;8.52;4.30;;;;;;;;;;4376889;32;20062;-69
2021/05/16 02:53:35;;;;;;;9.95;3.80;;;;;;;;;;4364368;32;20171;-68
2021/05/16 02:56:02;;;;;;;9.80;4.18;;;;;;;;;;4364014;32;20493;-69
2021/05/16 02:58:28;;;;;;;8.73;4.50;;;;;;;;;;4364319;32;20163;-68
2021/05/16 03:00:55;;;;;;;15.35;4.53;;;;;;;;;;4377100;32;20089;-69
2021/05/16 03:03:21;;;;;;;10.75;4.00;;;;;;;;;;4364305;32;20146;-69
2021/05/16 03:05:48;;;;;;;9.82;4.15;;;;;;;;;;4364195;32;20669;-69
2021/05/16 03:08:15;;;;;;;8.90;4.25;;;;;;;;;;4376384;32;20453;-69
2021/05/16 03:10:41;;;;;;;8.48;4.25;;;;;;;;;;4363603;32;20085;-69
2021/05/16 03:13:08;;;;;;;9.55;4.20;;;;;;;;;;4376695;32;20081;-69
2021/05/16 03:15:34;;;;;;;7.53;4.30;;;;;;;;;;4378126;32;20480;-69
2021/05/16 03:18:01;;;;;;;10.60;4.05;;;;;;;;;;4363803;32;20070;-69
2021/05/16 03:20:27;;;;;;;9.52;4.55;;;;;;;;;;4376568;32;20084;-68
2021/05/16 03:22:54;;;;;;;12.65;4.53;;;;;;;;;;4356628;32;20144;-69
2021/05/16 03:25:21;;;;;;;11.23;4.28;;;;;;;;;;4391314;32;20077;-69
2021/05/16 03:27:47;;;;;;;8.25;4.07;;;;;;;;;;4379045;32;20088;-69
2021/05/16 03:30:14;;;;;;;9.20;3.97;;;;;;;;;;4391444;32;20136;-69
2021/05/16 03:32:41;;;;;;;11.10;4.30;;;;;;;;;;4366533;32;20089;-69
2021/05/16 03:35:09;;;;;;;8.55;4.32;;;;;;;;;;4391176;32;20093;-69
2021/05/16 03:37:36;;;;;;;12.77;4.00;;;;;;;;;;4376910;32;20604;-69
2021/05/16 03:40:04;;;;;;;12.07;4.70;;;;;;;;;;4376231;32;20194;-70
2021/05/16 03:42:30;;;;;;;12.20;4.40;;;;;;;;;;4376147;32;20058;-69
2021/05/16 03:44:57;;;;;;;8.38;3.95;;;;;;;;;;4376393;32;20143;-69
2021/05/16 03:47:23;;;;;;;17.35;4.80;;;;;;;;;;4376393;32;20074;-68
2021/05/16 03:49:50;;;;;;;6.70;4.05;;;;;;;;;;4363992;32;20070;-69
2021/05/16 03:52:19;;;;;;;14.52;4.90;;;;;;;;;;4375938;32;20074;-69
2021/05/16 03:54:49;;;;;;;9.90;4.07;;;;;;;;;;4365048;32;20180;-69
2021/05/16 03:57:16;;;;;;;8.48;4.20;;;;;;;;;;4363459;32;20143;-69
2021/05/16 03:59:43;;;;;;;13.52;4.55;;;;;;;;;;4363414;32;20073;-69
2021/05/16 04:02:10;;;;;;;10.30;3.90;;;;;;;;;;4376073;32;20068;-69
2021/05/16 04:04:37;;;;;;;10.73;4.32;;;;;;;;;;4363260;32;20066;-69
2021/05/16 04:07:04;;;;;;;10.10;4.32;;;;;;;;;;4363328;32;20089;-69
2021/05/16 04:09:30;;;;;;;8.75;3.92;;;;;;;;;;4363891;32;20069;-69
2021/05/16 04:11:57;;;;;;;13.68;4.25;;;;;;;;;;4375467;32;20089;-69
2021/05/16 04:14:24;;;;;;;10.90;4.55;;;;;;;;;;4375742;32;20167;-69
2021/05/16 04:16:51;;;;;;;12.50;4.53;;;;;;;;;;4364633;32;20116;-67
2021/05/16 04:19:18;;;;;;;12.20;4.72;;;;;;;;;;4362974;32;20456;-69
2021/05/16 04:21:45;;;;;;;11.27;4.40;;;;;;;;;;4363360;32;20061;-69
2021/05/16 04:24:12;;;;;;;13.13;4.10;;;;;;;;;;4375798;32;20093;-70
2021/05/16 04:26:38;;;;;;;16.58;4.72;;;;;;;;;;4390598;32;20076;-69
2021/05/16 04:29:08;;;;;;;11.88;4.03;;;;;;;;;;4365281;32;20077;-69
2021/05/16 04:31:35;;;;;;;15.65;4.37;;;;;;;;;;4377836;32;20455;-69
2021/05/16 04:34:01;;;;;;;10.50;4.05;;;;;;;;;;4390117;32;20089;-69
2021/05/16 04:36:28;;;;;;;11.95;4.25;;;;;;;;;;4383304;32;20071;-68
2021/05/16 04:38:55;;;;;;;13.55;4.03;;;;;;;;;;4363010;32;20522;-69
2021/05/16 04:41:22;;;;;;;15.90;4.30;;;;;;;;;;4375729;32;20504;-67
2021/05/16 04:43:48;;;;;;;12.90;4.43;;;;;;;;;;4362969;32;20078;-69
2021/05/16 04:46:15;;;;;;;14.93;3.95;;;;;;;;;;4363184;32;20081;-69
2021/05/16 04:48:41;;;;;;;10.05;3.45;;;;;;;;;;4363056;32;20082;-68
2021/05/16 04:51:08;;;;;;;12.57;4.37;;;;;;;;;;4362944;32;20097;-69
2021/05/16 04:53:36;;;;;;;20.58;4.53;;;;;;;;;;4362870;32;20444;-68
2021/05/16 04:56:03;;;;;;;15.15;4.20;;;;;;;;;;4363226;32;20141;-69
2021/05/16 04:58:29;;;;;;;13.82;4.32;;;;;;;;;;4375288;32;20495;-68
2021/05/16 05:00:56;;;;;;;15.77;4.03;;;;;;;;;;4362911;32;20073;-69
2021/05/16 05:03:24;;;;;;;17.30;4.25;;;;;;;;;;4362506;32;20490;-69
2021/05/16 05:05:54;;;;;;;17.20;4.47;;;;;;;;;;4363115;32;20171;-69
2021/05/16 05:08:22;;;;;;;15.73;4.40;;;;;;;;;;4362513;32;20074;-69
2021/05/16 05:10:49;;;;;;;17.20;4.10;;;;;;;;;;4362640;32;20086;-69
2021/05/16 05:13:15;;;;;;;13.02;4.35;;;;;;;;;;4362796;32;20501;-69
2021/05/16 05:15:42;;;;;;;8.60;4.25;;;;;;;;;;4362055;32;20066;-68
2021/05/16 05:18:09;;;;;;;11.45;4.35;;;;;;;;;;4374750;32;20081;-69
2021/05/16 05:20:36;;;;;;;15.63;4.15;;;;;;;;;;4362809;32;20084;-68
2021/05/16 05:23:02;;;;;;;18.02;4.10;;;;;;;;;;4368625;32;20089;-68
2021/05/16 05:25:29;;;;;;;14.77;4.00;;;;;;;;;;4390427;32;20527;-68
2021/05/16 05:27:56;;;;;;;12.98;4.03;;;;;;;;;;4390202;32;20088;-69
2021/05/16 05:30:23;;;;;;;13.88;4.03;;;;;;;;;;4389718;32;20526;-69
2021/05/16 05:35:25;;;;;;;20.23;4.18;;;;;;;;;;3857745;37;20054;-68
2021/05/16 05:37:52;;;;;;;11.95;3.97;;;;;;;;;;4406983;32;20076;-69
2021/05/16 05:40:19;;;;;;;15.13;4.43;;;;;;;;;;4393795;32;20161;-69
2021/05/16 05:42:45;;;;;;;12.90;4.57;;;;;;;;;;4393668;32;20506;-69
2021/05/16 05:45:12;;;;;;;15.25;3.95;;;;;;;;;;4393722;32;20074;-69
2021/05/16 05:47:41;;;;;;;15.40;4.18;;;;;;;;;;4393173;32;20089;-68
2021/05/16 05:50:08;;;;;;;16.70;4.05;;;;;;;;;;4406795;32;20427;-69
2021/05/16 05:52:35;;;;;;;16.55;4.00;;;;;;;;;;4380524;32;20150;-68
2021/05/16 05:55:01;;;;;;;12.90;4.12;;;;;;;;;;4406668;32;20062;-69
2021/05/16 05:57:28;;;;;;;12.35;4.22;;;;;;;;;;4393288;32;20077;-68
2021/05/16 05:59:55;;;;;;;17.05;4.40;;;;;;;;;;4405640;32;20088;-69
2021/05/16 06:02:21;;;;;;;14.18;3.78;;;;;;;;;;4407137;32;20061;-70
2021/05/16 06:04:48;;;;;;;13.07;3.92;;;;;;;;;;4405634;32;20084;-69
2021/05/16 06:07:15;;;;;;;18.73;3.80;;;;;;;;;;4380676;32;20069;-69
2021/05/16 06:09:41;;;;;;;18.85;4.35;;;;;;;;;;4418184;32;20063;-69
2021/05/16 06:12:09;;;;;;;20.83;4.35;;;;;;;;;;4418094;32;20066;-69
2021/05/16 06:14:36;;;;;;;14.98;4.03;;;;;;;;;;4418084;32;20455;-68
2021/05/16 06:17:03;;;;;;;16.02;4.22;;;;;;;;;;4394558;32;20120;-69
2021/05/16 06:19:30;;;;;;;18.75;4.05;;;;;;;;;;4380890;32;20091;-69
2021/05/16 06:21:57;;;;;;;25.40;4.00;;;;;;;;;;4393361;32;20239;-69
2021/05/16 06:24:23;;;;;;;13.55;4.00;;;;;;;;;;4392261;32;20456;-69
2021/05/16 06:26:50;;;;;;;11.38;3.80;;;;;;;;;;4403010;32;20092;-69
2021/05/16 06:29:16;;;;;;;16.73;3.90;;;;;;;;;;4379004;32;20077;-69
2021/05/16 06:31:43;;;;;;;11.00;4.25;;;;;;;;;;4391064;32;20064;-69
2021/05/16 06:34:10;;;;;;;15.15;4.05;;;;;;;;;;4365758;32;20074;-69
2021/05/16 06:36:37;;;;;;;11.95;3.87;;;;;;;;;;4389741;32;20084;-68
2021/05/16 06:39:05;;;;;;;14.48;3.92;;;;;;;;;;4390029;32;20151;-67
2021/05/16 06:41:33;;;;;;;16.80;4.57;;;;;;;;;;4377376;32;20062;-68
2021/05/16 06:44:00;;;;;;;14.68;4.20;;;;;;;;;;4390633;32;20053;-69
2021/05/16 06:46:27;;;;;;;15.52;3.97;;;;;;;;;;4369221;32;20062;-69
2021/05/16 06:48:54;;;;;;;15.55;4.20;;;;;;;;;;4380520;32;20085;-68
2021/05/16 06:51:21;;;;;;;14.05;3.78;;;;;;;;;;4392567;32;20074;-68
2021/05/16 06:53:48;;;;;;;16.23;4.40;;;;;;;;;;4355164;32;20179;-68
2021/05/16 06:56:15;;;;;;;18.10;3.60;;;;;;;;;;4367553;32;20054;-69
2021/05/16 06:58:42;;;;;;;17.95;3.80;;;;;;;;;;4367163;32;20089;-68
2021/05/16 07:01:09;;;;;;;20.30;4.20;;;;;;;;;;4392154;32;20097;-68
2021/05/16 07:03:38;;;;;;;13.93;4.15;;;;;;;;;;4367450;32;20185;-69
2021/05/16 07:06:07;;;;;;;15.25;4.32;;;;;;;;;;4379947;32;20070;-69
2021/05/16 07:08:34;;;;;;;15.15;3.67;;;;;;;;;;4354633;32;20575;-68
2021/05/16 07:11:02;;;;;;;15.80;3.83;;;;;;;;;;4380113;32;20069;-68
2021/05/16 07:13:28;;;;;;;14.25;4.68;;;;;;;;;;4354684;32;20467;-68
2021/05/16 07:15:55;;;;;;;15.85;4.07;;;;;;;;;;4354844;32;20141;-68
2021/05/16 07:18:25;;;;;;;9.32;3.78;;;;;;;;;;4366941;32;20154;-69
2021/05/16 07:20:51;;;;;;;14.77;4.25;;;;;;;;;;4379671;32;20129;-68
2021/05/16 07:23:18;;;;;;;12.63;3.87;;;;;;;;;;4367972;32;20080;-69
2021/05/16 07:25:45;;;;;;;16.50;4.10;;;;;;;;;;4367472;32;20448;-69
2021/05/16 07:28:12;;;;;;;13.07;4.30;;;;;;;;;;4354619;32;20069;-69
2021/05/16 07:30:38;;;;;;;16.60;4.35;;;;;;;;;;4379799;32;20501;-69
2021/05/16 07:33:05;;;;;;;12.90;3.67;;;;;;;;;;4354245;32;20073;-69
2021/05/16 07:35:32;;;;;;;15.85;4.12;;;;;;;;;;4366907;32;20086;-69
2021/05/16 07:37:58;;;;;;;13.00;4.30;;;;;;;;;;4367388;32;20092;-69
2021/05/16 07:40:25;;;;;;;15.60;3.80;;;;;;;;;;4366615;32;20085;-69
2021/05/16 07:42:53;;;;;;;10.80;4.00;;;;;;;;;;4354377;32;20074;-69
2021/05/16 07:45:20;;;;;;;13.75;3.85;;;;;;;;;;4354403;32;20081;-69
2021/05/16 07:47:46;;;;;;;16.52;4.12;;;;;;;;;;4378991;32;20057;-68
2021/05/16 07:50:13;;;;;;;12.80;4.18;;;;;;;;;;4379108;32;20076;-69
2021/05/16 07:52:40;;;;;;;14.65;4.32;;;;;;;;;;4366786;32;20081;-69
2021/05/16 07:55:08;;;;;;;12.13;4.10;;;;;;;;;;4367068;32;20177;-69
2021/05/16 07:57:35;;;;;;;14.25;4.50;;;;;;;;;;4378160;32;20156;-69
2021/05/16 08:00:02;;;;;;;14.20;4.20;;;;;;;;;;4366765;32;20534;-69
2021/05/16 08:02:29;;;;;;;9.45;4.00;;;;;;;;;;4354184;32;20159;-69
2021/05/16 08:04:55;;;;;;;11.73;4.37;;;;;;;;;;4366447;32;20076;-68
2021/05/16 08:07:22;;;;;;;12.30;4.32;;;;;;;;;;4353817;32;20069;-69
2021/05/16 08:09:49;;;;;;;13.48;4.30;;;;;;;;;;4379038;32;20206;-68
2021/05/16 08:12:15;;;;;;;14.65;4.18;;;;;;;;;;4366344;32;20080;-69
2021/05/16 08:14:42;;;;;;;11.43;4.40;;;;;;;;;;4366412;32;20182;-69
2021/05/16 08:17:09;;;;;;;9.52;4.65;;;;;;;;;;4391140;32;20085;-69
2021/05/16 08:19:35;;;;;;;10.05;4.18;;;;;;;;;;4391312;32;20066;-69
2021/05/16 08:22:02;;;;;;;10.45;3.78;;;;;;;;;;4390795;32;20116;-70
2021/05/16 08:24:29;;;;;;;8.63;4.20;;;;;;;;;;4366787;32;20206;-68
2021/05/16 08:26:55;;;;;;;11.55;4.20;;;;;;;;;;4366761;32;20583;-69
2021/05/16 08:29:22;;;;;;;13.07;4.62;;;;;;;;;;4379381;32;20065;-69
2021/05/16 08:31:49;;;;;;;9.80;4.00;;;;;;;;;;4355995;32;20184;-69
2021/05/16 08:34:18;;;;;;;7.93;3.97;;;;;;;;;;4391341;32;20154;-69
2021/05/16 08:36:44;;;;;;;10.43;4.45;;;;;;;;;;4392009;32;20069;-68
2021/05/16 08:39:11;;;;;;;11.55;5.03;;;;;;;;;;4392566;32;20069;-69
2021/05/16 08:41:38;;;;;;;8.90;3.90;;;;;;;;;;4380451;32;20070;-69
2021/05/16 08:44:04;;;;;;;10.00;4.40;;;;;;;;;;4366766;32;20077;-69
2021/05/16 08:46:31;;;;;;;7.68;4.37;;;;;;;;;;4379657;32;20069;-69
2021/05/16 08:48:57;;;;;;;8.30;4.00;;;;;;;;;;4366658;32;20086;-68
2021/05/16 08:51:24;;;;;;;11.27;4.50;;;;;;;;;;4366115;32;20065;-69
2021/05/16 08:53:51;;;;;;;10.82;4.50;;;;;;;;;;4353486;32;20070;-68
2021/05/16 08:56:17;;;;;;;10.85;4.00;;;;;;;;;;4379211;32;20133;-68
2021/05/16 08:58:45;;;;;;;9.60;4.10;;;;;;;;;;4365710;32;20096;-69
2021/05/16 09:01:18;;;;;;;8.85;4.32;;;;;;;;;;4390880;32;20068;-68
2021/05/16 09:03:45;;;;;;;8.35;4.32;;;;;;;;;;4378462;32;20499;-69
2021/05/16 09:06:12;;;;;;;13.02;4.12;;;;;;;;;;4390959;32;20065;-69
2021/05/16 09:08:39;;;;;;;11.85;4.57;;;;;;;;;;4352446;32;20247;-69
2021/05/16 09:11:05;;;;;;;11.70;4.25;;;;;;;;;;4390275;32;20572;-69
2021/05/16 09:13:33;;;;;;;11.07;4.35;;;;;;;;;;4377518;32;20074;-69
2021/05/16 09:16:03;;;;;;;13.07;4.25;;;;;;;;;;4365695;32;20066;-68
2021/05/16 09:18:34;;;;;;;14.27;4.07;;;;;;;;;;4390774;32;20069;-68
2021/05/16 09:21:32;;;;;;;12.82;4.22;;;;;;;;;;4366440;32;20441;-68
2021/05/16 09:24:06;;;;;;;11.23;4.10;;;;;;;;;;4365172;32;20455;-68
2021/05/16 09:26:55;;;;;;;13.45;3.87;;;;;;;;;;4377810;32;20088;-69
2021/05/16 09:29:44;;;;;;;15.75;4.10;;;;;;;;;;4366433;32;20064;-69
2021/05/16 09:32:10;;;;;;;10.13;2.80;;;;;;;;;;4368596;32;20089;-69
2021/05/16 09:34:40;;;;;;;12.60;3.80;;;;;;;;;;4377922;32;20073;-67
2021/05/16 09:37:10;;;;;;;12.45;3.80;;;;;;;;;;4354092;32;20062;-69
2021/05/16 09:39:38;;;;;;;13.88;3.78;;;;;;;;;;4365764;32;20073;-68
2021/05/16 09:42:14;;;;;;;12.48;3.97;;;;;;;;;;4353170;32;20077;-68
2021/05/16 09:44:54;;;;;;;12.98;3.58;;;;;;;;;;4389713;32;20173;-68
2021/05/16 09:47:26;;;;;;;16.62;4.22;;;;;;;;;;4365040;32;20511;-69
2021/05/16 09:49:57;;;;;;;15.32;3.55;;;;;;;;;;4377464;32;20059;-69
2021/05/16 09:52:27;;;;;;;11.07;3.85;;;;;;;;;;4365176;32;20133;-69
2021/05/16 09:55:03;;;;;;;10.18;3.37;;;;;;;;;;4365082;32;20062;-68
2021/05/16 09:57:31;;;;;;;12.80;3.35;;;;;;;;;;4389867;32;20164;-68
2021/05/16 09:59:58;;;;;;;11.05;3.50;;;;;;;;;;4377784;32;20081;-68
2021/05/16 10:02:27;;;;;;;13.43;3.40;;;;;;;;;;4352880;32;20070;-68
2021/05/16 10:04:59;;;;;;;9.40;3.28;;;;;;;;;;4377663;32;20140;-69
2021/05/16 10:07:25;;;;;;;9.48;2.70;;;;;;;;;;4377762;32;20098;-69
2021/05/16 10:09:52;;;;;;;10.77;3.42;;;;;;;;;;4365834;32;20474;-69
2021/05/16 10:12:20;;;;;;;11.82;3.22;;;;;;;;;;4365208;32;20084;-69
2021/05/16 10:14:48;;;;;;;12.55;3.03;;;;;;;;;;4377154;32;20463;-68
2021/05/16 10:17:15;;;;;;;9.70;3.28;;;;;;;;;;4365300;32;20077;-69
2021/05/16 10:19:43;;;;;;;10.52;3.03;;;;;;;;;;4352153;32;20530;-68
2021/05/16 10:22:10;;;;;;;7.25;2.97;;;;;;;;;;4367106;32;20539;-69
2021/05/16 10:24:54;;;;;;;8.27;3.10;;;;;;;;;;4392608;32;20074;-69
2021/05/16 10:27:28;;;;;;;11.27;3.17;;;;;;;;;;4393047;32;20491;-69
2021/05/16 10:29:56;;;;;;;10.77;4.03;;;;;;;;;;4380076;32;20078;-68
2021/05/16 10:32:30;;;;;;;9.10;3.37;;;;;;;;;;4379738;32;20058;-69
2021/05/16 10:35:10;;;;;;;9.02;3.03;;;;;;;;;;4368461;32;20074;-69
2021/05/16 10:37:37;;;;;;;5.32;2.75;;;;;;;;;;4368304;32;20231;-69
2021/05/16 10:40:23;;;;;;;10.88;2.92;;;;;;;;;;4392739;32;20142;-69
2021/05/16 10:42:53;;;;;;;9.90;3.37;;;;;;;;;;4393928;32;20089;-69
2021/05/16 10:45:39;;;;;;;6.10;2.80;;;;;;;;;;4368120;32;20072;-69
2021/05/16 10:48:29;;;;;;;12.37;3.03;;;;;;;;;;4380446;32;20532;-68
2021/05/16 10:50:58;;;;;;;10.80;3.80;;;;;;;;;;4393425;32;20169;-68
2021/05/16 10:53:29;;;;;;;10.05;3.28;;;;;;;;;;4379833;32;20069;-68
2021/05/16 10:56:06;;;;;;;11.75;3.03;;;;;;;;;;4368586;32;20145;-68
2021/05/16 10:58:33;;;;;;;11.55;2.90;;;;;;;;;;4380302;32;20062;-68
2021/05/16 11:01:32;;;;;;;10.60;2.80;;;;;;;;;;4392937;32;20089;-69
2021/05/16 11:04:01;;;;;;;8.40;3.20;;;;;;;;;;4390636;32;20080;-69
2021/05/16 11:06:39;;;;;;;9.15;3.10;;;;;;;;;;4367371;32;20122;-69
2021/05/16 11:09:07;;;;;;;11.82;3.15;;;;;;;;;;4392117;32;20132;-68
2021/05/16 11:11:35;;;;;;;10.10;3.25;;;;;;;;;;4367272;32;20074;-69
2021/05/16 11:14:24;;;;;;;9.95;3.65;;;;;;;;;;4379174;32;20082;-68
2021/05/16 11:16:53;;;;;;;10.45;3.05;;;;;;;;;;4393184;32;20157;-69
2021/05/16 11:19:24;;;;;;;10.85;3.17;;;;;;;;;;4391674;32;20170;-69
2021/05/16 11:21:50;;;;;;;11.55;3.15;;;;;;;;;;4367582;32;20062;-69
2021/05/16 11:24:35;;;;;;;9.85;3.20;;;;;;;;;;4368407;32;20089;-69
2021/05/16 11:27:12;;;;;;;8.05;2.47;;;;;;;;;;4379331;32;20146;-68
2021/05/16 11:29:38;;;;;;;8.18;3.08;;;;;;;;;;4393131;32;20588;-69
2021/05/16 11:32:05;;;;;;;11.12;3.20;;;;;;;;;;4366510;32;20123;-69
2021/05/16 11:34:32;;;;;;;14.70;3.70;;;;;;;;;;4354151;32;20153;-69
2021/05/16 11:37:15;;;;;;;11.77;3.53;;;;;;;;;;4366652;32;20107;-68
2021/05/16 11:39:41;;;;;;;15.95;3.60;;;;;;;;;;4379351;32;20081;-69
2021/05/16 11:42:08;;;;;;;14.00;3.60;;;;;;;;;;4391395;32;20070;-69
2021/05/16 11:44:35;;;;;;;10.23;3.45;;;;;;;;;;4391487;32;20103;-68
2021/05/16 11:47:01;;;;;;;9.38;3.30;;;;;;;;;;4354226;32;20077;-69
2021/05/16 11:49:30;;;;;;;12.10;3.25;;;;;;;;;;4366331;32;20077;-68
2021/05/16 11:52:02;;;;;;;11.00;2.85;;;;;;;;;;4354356;32;20159;-68
2021/05/16 11:54:38;;;;;;;15.27;4.20;;;;;;;;;;4379080;32;20527;-69
2021/05/16 11:57:05;;;;;;;7.37;2.70;;;;;;;;;;4391638;32;20142;-68
2021/05/16 11:59:31;;;;;;;12.25;3.65;;;;;;;;;;4353990;32;20069;-68
2021/05/16 12:02:03;;;;;;;14.80;4.75;;;;;;;;;;4353734;32;20072;-69
2021/05/16 12:04:38;;;;;;;12.13;3.40;;;;;;;;;;4366450;32;20069;-69
2021/05/16 12:07:05;;;;;;;14.10;3.30;;;;;;;;;;4379036;32;20496;-69
2021/05/16 12:09:38;;;;;;;13.48;3.28;;;;;;;;;;4353936;32;20062;-69
2021/05/16 12:12:04;;;;;;;8.30;3.10;;;;;;;;;;4366062;32;20471;-68
2021/05/16 12:14:31;;;;;;;9.43;3.00;;;;;;;;;;4353420;32;20066;-69
2021/05/16 12:16:58;;;;;;;13.45;3.22;;;;;;;;;;4366199;32;20066;-68
2021/05/16 12:19:26;;;;;;;9.75;2.92;;;;;;;;;;4366296;32;20073;-68
2021/05/16 12:21:54;;;;;;;11.38;3.35;;;;;;;;;;4366358;32;20068;-69
2021/05/16 12:24:22;;;;;;;9.75;3.10;;;;;;;;;;4365758;32;20100;-68
2021/05/16 12:26:48;;;;;;;6.53;2.60;;;;;;;;;;4366190;32;20156;-69
2021/05/16 12:29:16;;;;;;;11.70;2.72;;;;;;;;;;4366109;32;20140;-69
2021/05/16 12:31:43;;;;;;;8.98;2.45;;;;;;;;;;4391052;32;20489;-70
2021/05/16 12:34:11;;;;;;;9.80;2.85;;;;;;;;;;4365705;32;20087;-69
2021/05/16 12:36:54;;;;;;;8.70;2.53;;;;;;;;;;4378278;32;20165;-69
2021/05/16 12:39:43;;;;;;;4.53;2.15;;;;;;;;;;4390345;32;20081;-69
2021/05/16 12:42:25;;;;;;;3.95;2.03;;;;;;;;;;4378403;32;20062;-69
2021/05/16 12:44:52;;;;;;;5.45;2.40;;;;;;;;;;4390151;32;20163;-69
2021/05/16 12:47:26;;;;;;;7.55;2.33;;;;;;;;;;4353322;32;20085;-69
2021/05/16 12:50:03;;;;;;;5.93;2.17;;;;;;;;;;4377732;32;20162;-69
2021/05/16 12:52:30;;;;;;;6.28;2.72;;;;;;;;;;4377848;32;20073;-69
2021/05/16 12:54:57;;;;;;;5.32;2.35;;;;;;;;;;4377962;32;20065;-69
2021/05/16 12:57:42;;;;;;;6.55;2.90;;;;;;;;;;4378329;32;20065;-69
2021/05/16 13:00:09;;;;;;;10.13;2.90;;;;;;;;;;4378998;32;20082;-69
2021/05/16 13:02:39;;;;;;;11.07;3.17;;;;;;;;;;4365060;32;20552;-69
2021/05/16 13:05:15;;;;;;;6.47;3.42;;;;;;;;;;4378598;32;20074;-69
2021/05/16 13:07:51;;;;;;;8.88;3.10;;;;;;;;;;4378378;32;20181;-69
2021/05/16 13:10:39;;;;;;;7.70;3.25;;;;;;;;;;4366374;32;20494;-69
2021/05/16 13:13:14;;;;;;;10.93;3.60;;;;;;;;;;4365324;32;20775;-67
2021/05/16 13:15:42;;;;;;;11.68;3.67;;;;;;;;;;4390050;32;20084;-69
2021/05/16 13:18:29;;;;;;;9.68;3.83;;;;;;;;;;4364917;32;20459;-69
2021/05/16 13:20:57;;;;;;;9.30;3.80;;;;;;;;;;4377760;32;20093;-69
2021/05/16 13:23:28;;;;;;;10.05;3.70;;;;;;;;;;4365277;32;20483;-69
2021/05/16 13:25:56;;;;;;;10.18;3.60;;;;;;;;;;4366247;32;20177;-68
2021/05/16 13:28:27;;;;;;;9.13;3.67;;;;;;;;;;4353342;32;20066;-68
2021/05/16 13:31:00;;;;;;;10.80;3.65;;;;;;;;;;4365978;32;20070;-69
2021/05/16 13:33:31;;;;;;;13.82;4.53;;;;;;;;;;4377429;32;20085;-69
2021/05/16 13:36:01;;;;;;;10.90;3.55;;;;;;;;;;4377519;32;20572;-69
2021/05/16 13:38:29;;;;;;;14.18;4.10;;;;;;;;;;4366359;32;20456;-68
2021/05/16 13:40:58;;;;;;;11.07;3.72;;;;;;;;;;4365658;32;20085;-69
2021/05/16 13:43:25;;;;;;;9.57;3.97;;;;;;;;;;4365607;32;20058;-69
2021/05/16 13:45:51;;;;;;;9.50;3.60;;;;;;;;;;4390179;32;20488;-69
2021/05/16 13:48:18;;;;;;;9.90;3.65;;;;;;;;;;4377322;32;20187;-69
2021/05/16 13:50:44;;;;;;;10.52;3.92;;;;;;;;;;4377386;32;20530;-69
2021/05/16 13:53:11;;;;;;;9.38;3.45;;;;;;;;;;4377409;32;20070;-68
2021/05/16 13:55:37;;;;;;;8.25;4.07;;;;;;;;;;4378534;32;20097;-69
2021/05/16 13:58:04;;;;;;;8.82;3.78;;;;;;;;;;4380648;32;20579;-68
2021/05/16 14:00:31;;;;;;;9.90;4.05;;;;;;;;;;4380276;32;20074;-69
2021/05/16 14:02:59;;;;;;;8.18;3.95;;;;;;;;;;4355615;32;20105;-69
2021/05/16 14:05:25;;;;;;;10.02;3.75;;;;;;;;;;4380303;32;20054;-67
2021/05/16 14:07:52;;;;;;;8.85;3.83;;;;;;;;;;4355110;32;20077;-69
2021/05/16 14:10:19;;;;;;;9.32;3.62;;;;;;;;;;4367597;32;20066;-69
2021/05/16 14:12:46;;;;;;;8.50;4.00;;;;;;;;;;4380275;32;20073;-68
2021/05/16 14:15:13;;;;;;;13.02;4.22;;;;;;;;;;4380556;32;20070;-68
2021/05/16 14:17:39;;;;;;;9.32;4.30;;;;;;;;;;4369824;32;20070;-68
2021/05/16 14:20:07;;;;;;;8.75;3.50;;;;;;;;;;4393414;32;20141;-69
2021/05/16 14:22:37;;;;;;;12.73;4.05;;;;;;;;;;4380550;32;20511;-69
2021/05/16 14:25:04;;;;;;;8.57;3.90;;;;;;;;;;4368038;32;20088;-69
2021/05/16 14:27:32;;;;;;;10.82;3.92;;;;;;;;;;4355200;32;20070;-68
2021/05/16 14:30:00;;;;;;;11.02;3.87;;;;;;;;;;4380711;32;20073;-68
2021/05/16 14:32:26;;;;;;;9.98;4.10;;;;;;;;;;4380570;32;20074;-69
2021/05/16 14:34:53;;;;;;;11.27;4.15;;;;;;;;;;4379856;32;20078;-69
2021/05/16 14:37:19;;;;;;;9.65;3.90;;;;;;;;;;4377637;32;20085;-69
2021/05/16 14:39:46;;;;;;;14.85;4.25;;;;;;;;;;4365578;32;20507;-69
2021/05/16 14:42:13;;;;;;;9.05;3.80;;;;;;;;;;4352545;32;20151;-69
2021/05/16 14:44:39;;;;;;;9.82;4.07;;;;;;;;;;4352505;32;20074;-69
2021/05/16 14:47:06;;;;;;;7.72;4.18;;;;;;;;;;4378795;32;20087;-68